createdAt,value
2019-02-10T00:02:09.305Z,4.37
2019-02-10T00:04:39.440Z,4.20
2019-02-10T00:07:09.818Z,7.53
2019-02-10T00:09:40.098Z,10.53
2019-02-10T00:12:10.261Z,6.43
2019-02-10T00:14:40.409Z,3.40
2019-02-10T00:17:10.607Z,9.60
2019-02-10T00:19:40.792Z,11.33
2019-02-10T00:22:10.959Z,5.00
2019-02-10T00:24:41.297Z,7.77
2019-02-10T00:27:11.808Z,6.67
2019-02-10T00:29:42.002Z,5.17
2019-02-10T00:32:12.170Z,3.33
2019-02-10T00:34:42.310Z,5.13
2019-02-10T00:37:12.507Z,10.80
2019-02-10T00:39:42.675Z,6.97
2019-02-10T00:42:12.855Z,10.60
2019-02-10T00:44:43.014Z,6.93
2019-02-10T00:47:13.213Z,7.70
2019-02-10T00:49:43.434Z,6.13
2019-02-10T00:52:13.663Z,10.43
2019-02-10T00:54:43.872Z,6.73
2019-02-10T00:57:14.031Z,2.90
2019-02-10T00:59:44.220Z,8.13
2019-02-10T01:02:14.395Z,10.80
2019-02-10T01:04:44.592Z,8.87
2019-02-10T01:07:14.735Z,7.77
2019-02-10T01:09:44.967Z,6.10
2019-02-10T01:12:15.122Z,11.37
2019-02-10T01:14:45.308Z,5.60
2019-02-10T01:17:15.490Z,5.20
2019-02-10T01:19:45.703Z,7.67
2019-02-10T01:22:15.869Z,4.17
2019-02-10T01:24:46.057Z,4.67
2019-02-10T01:27:16.270Z,4.90
2019-02-10T01:29:46.384Z,9.27
2019-02-10T01:32:16.576Z,3.80
2019-02-10T01:34:46.716Z,6.13
2019-02-10T01:37:16.929Z,4.23
2019-02-10T01:39:47.098Z,14.33
2019-02-10T01:42:17.238Z,4.30
2019-02-10T01:44:47.381Z,8.13
2019-02-10T01:47:17.575Z,5.77
2019-02-10T01:49:47.717Z,4.43
2019-02-10T01:52:17.876Z,7.50
2019-02-10T01:54:48.051Z,3.97
2019-02-10T01:57:18.210Z,2.17
2019-02-10T01:59:48.392Z,10.30
2019-02-10T02:02:18.563Z,7.60
2019-02-10T02:04:48.701Z,7.63
2019-02-10T02:07:18.879Z,4.43
2019-02-10T02:09:49.076Z,6.83
2019-02-10T02:12:19.231Z,11.97
2019-02-10T02:14:49.377Z,6.27
2019-02-10T02:17:19.653Z,8.80
2019-02-10T02:19:50.110Z,7.53
2019-02-10T02:22:20.325Z,3.70
2019-02-10T02:24:50.499Z,4.10
2019-02-10T02:27:20.701Z,9.70
2019-02-10T02:29:51.122Z,6.30
2019-02-10T02:32:21.305Z,9.90
2019-02-10T02:34:51.450Z,4.00
2019-02-10T02:37:21.680Z,3.07
2019-02-10T02:39:51.848Z,5.50
2019-02-10T02:42:22.083Z,6.60
2019-02-10T02:44:52.209Z,3.63
2019-02-10T02:47:22.348Z,8.60
2019-02-10T02:49:52.531Z,6.03
2019-02-10T02:52:22.698Z,8.03
2019-02-10T02:54:52.859Z,15.63
2019-02-10T02:57:23.092Z,7.10
2019-02-10T02:59:53.204Z,2.10
2019-02-10T03:02:23.368Z,4.43
2019-02-10T03:04:53.648Z,3.30
2019-02-10T03:07:23.802Z,11.60
2019-02-10T03:09:53.969Z,6.43
2019-02-10T03:12:24.329Z,6.57
2019-02-10T03:14:54.500Z,10.93
2019-02-10T03:17:24.669Z,3.70
2019-02-10T03:19:54.848Z,9.33
2019-02-10T03:22:25.003Z,6.40
2019-02-10T03:24:55.162Z,4.63
2019-02-10T03:27:25.400Z,7.17
2019-02-10T03:29:55.571Z,7.77
2019-02-10T03:32:25.759Z,7.00
2019-02-10T03:34:55.918Z,5.63
2019-02-10T03:37:27.503Z,12.77
2019-02-10T03:39:57.845Z,8.10
2019-02-10T03:42:28.389Z,5.87
2019-02-10T03:44:58.535Z,11.57
2019-02-10T03:47:28.709Z,5.57
2019-02-10T03:49:58.889Z,4.30
2019-02-10T03:52:29.090Z,4.43
2019-02-10T03:54:59.266Z,7.00
2019-02-10T03:57:29.420Z,4.27
2019-02-10T03:59:59.583Z,5.90
2019-02-10T04:02:29.740Z,9.60
2019-02-10T04:05:00.281Z,5.10
2019-02-10T04:07:36.234Z,6.80
2019-02-10T04:10:02.505Z,7.57
2019-02-10T04:12:32.672Z,6.07
2019-02-10T04:15:02.849Z,7.33
2019-02-10T04:17:33.106Z,10.93
2019-02-10T04:20:04.093Z,3.87
2019-02-10T04:22:34.277Z,3.53
2019-02-10T04:25:08.067Z,11.17
2019-02-10T04:27:38.261Z,7.57
2019-02-10T04:30:10.421Z,7.60
2019-02-10T04:32:41.427Z,5.47
2019-02-10T04:35:11.584Z,5.60
2019-02-10T04:37:46.137Z,3.87
2019-02-10T04:40:13.586Z,6.33
2019-02-10T04:42:43.740Z,7.50
2019-02-10T04:45:13.926Z,6.60
2019-02-10T04:47:44.176Z,9.23
2019-02-10T04:50:14.311Z,7.03
2019-02-10T04:52:44.486Z,4.70
2019-02-10T04:55:14.665Z,7.40
2019-02-10T04:57:44.831Z,8.00
2019-02-10T05:00:14.995Z,9.13
2019-02-10T05:02:45.171Z,5.97
2019-02-10T05:05:15.320Z,4.90
2019-02-10T05:07:54.107Z,4.70
2019-02-10T05:10:17.319Z,5.20
2019-02-10T05:12:47.451Z,6.47
2019-02-10T05:15:17.825Z,4.10
2019-02-10T05:17:48.028Z,6.23
2019-02-10T05:20:18.195Z,7.97
2019-02-10T05:22:48.358Z,9.13
2019-02-10T05:25:18.501Z,4.13
2019-02-10T05:27:48.684Z,5.97
2019-02-10T05:30:18.849Z,4.93
2019-02-10T05:32:49.043Z,5.73
2019-02-10T05:35:19.200Z,5.33
2019-02-10T05:37:49.402Z,8.07
2019-02-10T05:40:19.561Z,3.87
2019-02-10T05:42:49.754Z,3.20
2019-02-10T05:45:19.889Z,6.60
2019-02-10T05:47:50.599Z,2.20
2019-02-10T05:50:20.749Z,2.67
2019-02-10T05:52:50.926Z,2.07
2019-02-10T05:55:22.084Z,5.10
2019-02-10T05:57:52.277Z,3.37
2019-02-10T06:00:22.441Z,4.17
2019-02-10T06:02:52.573Z,2.43
2019-02-10T06:05:23.950Z,2.60
2019-02-10T06:07:54.128Z,2.57
2019-02-10T06:10:24.267Z,4.27
2019-02-10T06:12:54.428Z,2.80
2019-02-10T06:15:24.598Z,2.80
2019-02-10T06:17:54.761Z,3.33
2019-02-10T06:20:24.899Z,1.50
2019-02-10T06:22:55.055Z,2.60
2019-02-10T06:25:25.351Z,2.10
2019-02-10T06:27:55.523Z,4.87
2019-02-10T06:30:25.679Z,3.30
2019-02-10T06:32:55.840Z,4.83
2019-02-10T06:35:26.038Z,3.30
2019-02-10T06:37:56.199Z,1.60
2019-02-10T06:40:26.371Z,6.17
2019-02-10T06:45:16.925Z,1.60
2019-02-10T06:47:47.099Z,2.27
2019-02-10T06:50:17.283Z,2.90
2019-02-10T06:52:47.438Z,2.60
2019-02-10T06:55:17.578Z,2.80
2019-02-10T06:57:47.716Z,1.60
2019-02-10T07:00:25.570Z,3.17
2019-02-10T07:03:42.564Z,1.40
2019-02-10T07:06:14.851Z,1.60
2019-02-10T07:08:44.992Z,1.63
2019-02-10T07:11:15.207Z,2.63
2019-02-10T07:13:52.355Z,9.60
2019-02-10T07:16:34.908Z,1.40
2019-02-10T07:20:01.054Z,3.53
2019-02-10T07:22:38.617Z,3.03
2019-02-10T07:25:42.377Z,3.10
2019-02-10T07:28:17.241Z,2.80
2019-02-10T07:30:54.859Z,2.30
2019-02-10T07:34:05.895Z,5.20
2019-02-10T07:36:58.288Z,1.40
2019-02-10T07:39:44.410Z,0.93
2019-02-10T07:42:46.155Z,1.27
2019-02-10T07:45:39.683Z,1.27
2019-02-10T07:48:14.562Z,0.83
2019-02-10T07:51:13.191Z,1.90
2019-02-10T07:53:53.774Z,2.30
2019-02-10T07:57:04.897Z,1.63
2019-02-10T08:00:06.412Z,6.40
2019-02-10T08:02:56.116Z,2.00
2019-02-10T08:05:56.476Z,2.30
2019-02-10T08:08:52.228Z,2.00
2019-02-10T08:11:58.392Z,6.10
2019-02-10T08:14:33.270Z,2.00
2019-02-10T08:17:26.150Z,1.50
2019-02-10T08:20:15.930Z,1.23
2019-02-10T08:23:02.178Z,1.10
2019-02-10T08:25:56.586Z,0.83
2019-02-10T08:28:58.597Z,0.60
2019-02-10T08:32:13.822Z,1.27
2019-02-10T08:35:15.332Z,1.43
2019-02-10T08:38:08.098Z,2.67
2019-02-10T08:40:48.516Z,1.33
2019-02-10T08:43:47.594Z,4.40
2019-02-10T08:46:25.097Z,2.40
2019-02-10T08:48:59.958Z,2.53
2019-02-10T08:52:10.736Z,1.67
2019-02-10T08:54:40.927Z,5.63
2019-02-10T08:57:11.055Z,1.13
2019-02-10T08:59:41.262Z,0.97
2019-02-10T09:02:23.578Z,1.20
2019-02-10T09:04:53.761Z,2.20
2019-02-10T09:07:24.013Z,1.53
2019-02-10T09:09:54.167Z,2.10
2019-02-10T09:12:24.293Z,1.90
2019-02-10T09:14:54.486Z,0.93
2019-02-10T09:17:24.602Z,3.63
2019-02-10T09:19:54.798Z,0.83
2019-02-10T09:22:24.947Z,2.40
2019-02-10T09:24:55.105Z,1.40
2019-02-10T09:27:25.279Z,2.30
2019-02-10T09:29:55.450Z,1.30
2019-02-10T09:32:25.605Z,2.47
2019-02-10T09:34:55.796Z,0.80
2019-02-10T09:37:25.931Z,1.43
2019-02-10T09:39:56.110Z,1.63
2019-02-10T09:42:26.320Z,1.43
2019-02-10T09:44:56.457Z,3.07
2019-02-10T09:47:26.895Z,1.60
2019-02-10T09:49:57.043Z,1.60
2019-02-10T09:52:27.180Z,2.20
2019-02-10T09:54:57.377Z,1.40
2019-02-10T09:57:27.553Z,0.80
2019-02-10T09:59:57.706Z,1.80
2019-02-10T10:02:28.106Z,3.97
2019-02-10T10:04:58.303Z,1.80
2019-02-10T10:07:28.404Z,0.77
2019-02-10T10:09:58.573Z,6.93
2019-02-10T10:12:28.766Z,1.27
2019-02-10T10:14:58.909Z,2.10
2019-02-10T10:17:29.101Z,1.87
2019-02-10T10:19:59.286Z,1.53
2019-02-10T10:22:29.804Z,2.23
2019-02-10T10:25:00.705Z,2.00
2019-02-10T10:27:31.001Z,1.67
2019-02-10T10:30:01.166Z,2.17
2019-02-10T10:32:31.408Z,1.33
2019-02-10T10:35:01.625Z,1.60
2019-02-10T10:37:31.759Z,1.60
2019-02-10T10:40:02.050Z,1.70
2019-02-10T10:42:32.194Z,4.30
2019-02-10T10:45:02.485Z,1.93
2019-02-10T10:47:32.651Z,2.10
2019-02-10T10:50:02.825Z,1.93
2019-02-10T10:52:33.001Z,2.50
2019-02-10T10:55:03.219Z,7.70
2019-02-10T10:57:33.337Z,1.50
2019-02-10T11:00:04.514Z,7.20
2019-02-10T11:02:34.671Z,2.27
2019-02-10T11:05:05.846Z,1.33
2019-02-10T11:07:36.027Z,2.80
2019-02-10T11:10:14.089Z,1.90
2019-02-10T11:12:44.284Z,2.47
2019-02-10T11:15:16.668Z,7.03
2019-02-10T11:17:46.865Z,1.70
2019-02-10T11:20:16.992Z,2.80
2019-02-10T11:22:47.172Z,1.20
2019-02-10T11:25:17.335Z,1.67
2019-02-10T11:27:47.486Z,4.07
2019-02-10T11:30:19.588Z,2.13
2019-02-10T11:32:50.053Z,4.10
2019-02-10T11:35:20.197Z,1.83
2019-02-10T11:37:50.349Z,1.17
2019-02-10T11:40:20.547Z,2.17
2019-02-10T11:42:50.712Z,2.30
2019-02-10T11:45:20.913Z,2.43
2019-02-10T11:47:51.075Z,15.10
2019-02-10T11:50:21.284Z,5.57
2019-02-10T11:52:51.454Z,4.70
2019-02-10T11:55:21.690Z,2.50
2019-02-10T11:57:51.929Z,3.03
2019-02-10T12:00:22.078Z,2.60
2019-02-10T12:02:52.296Z,3.20
2019-02-10T12:05:22.517Z,1.40
2019-02-10T12:07:52.761Z,3.20
2019-02-10T12:10:22.911Z,3.00
2019-02-10T12:12:53.040Z,5.13
2019-02-10T12:15:23.208Z,5.93
2019-02-10T12:17:53.382Z,2.23
2019-02-10T12:20:23.530Z,2.00
2019-02-10T12:22:53.693Z,1.53
2019-02-10T12:25:23.959Z,4.90
2019-02-10T12:27:54.124Z,4.27
2019-02-10T12:30:24.631Z,1.83
2019-02-10T12:32:54.775Z,3.53
2019-02-10T12:35:24.927Z,1.73
2019-02-10T12:37:55.087Z,2.23
2019-02-10T12:40:25.471Z,2.17
2019-02-10T12:42:55.642Z,3.27
2019-02-10T12:45:25.894Z,1.27
2019-02-10T12:47:56.097Z,1.90
2019-02-10T12:50:26.258Z,1.70
2019-02-10T12:52:56.414Z,1.70
2019-02-10T12:55:27.355Z,2.17
2019-02-10T12:57:57.713Z,2.20
2019-02-10T13:00:28.130Z,1.43
2019-02-10T13:02:58.319Z,2.83
2019-02-10T13:05:28.517Z,5.77
2019-02-10T13:07:58.752Z,2.47
2019-02-10T13:10:28.893Z,3.93
2019-02-10T13:12:59.058Z,2.93
2019-02-10T13:15:29.359Z,2.47
2019-02-10T13:17:59.533Z,2.60
2019-02-10T13:20:29.792Z,5.60
2019-02-10T13:23:00.006Z,2.77
2019-02-10T13:25:30.172Z,2.20
2019-02-10T13:28:00.376Z,2.00
2019-02-10T13:30:30.572Z,3.17
2019-02-10T13:33:00.757Z,2.30
2019-02-10T13:35:30.971Z,4.70
2019-02-10T13:38:01.147Z,3.97
2019-02-10T13:40:31.388Z,4.20
2019-02-10T13:43:01.543Z,3.13
2019-02-10T13:45:31.718Z,2.80
2019-02-10T13:48:01.933Z,3.80
2019-02-10T13:50:32.077Z,1.57
2019-02-10T13:53:02.388Z,2.83
2019-02-10T13:55:32.621Z,2.53
2019-02-10T13:58:02.756Z,2.10
2019-02-10T14:00:32.953Z,2.50
2019-02-10T14:03:03.314Z,7.93
2019-02-10T14:05:33.464Z,2.23
2019-02-10T14:08:03.605Z,1.27
2019-02-10T14:10:33.768Z,0.80
2019-02-10T14:13:03.958Z,1.23
2019-02-10T14:15:34.093Z,1.30
2019-02-10T14:18:04.282Z,1.47
2019-02-10T14:20:34.427Z,1.50
2019-02-10T14:23:04.690Z,1.47
2019-02-10T14:25:34.925Z,3.50
2019-02-10T14:28:05.162Z,4.10
2019-02-10T14:30:35.340Z,1.10
2019-02-10T14:33:05.487Z,1.63
2019-02-10T14:35:35.664Z,0.53
2019-02-10T14:38:05.836Z,1.37
2019-02-10T14:40:36.000Z,1.30
2019-02-10T14:43:06.168Z,0.50
2019-02-10T14:45:36.350Z,0.70
2019-02-10T14:48:06.559Z,0.87
2019-02-10T14:50:36.687Z,0.50
2019-02-10T14:53:06.904Z,0.90
2019-02-10T14:55:37.077Z,0.60
2019-02-10T14:58:07.283Z,0.80
2019-02-10T15:00:37.426Z,0.67
2019-02-10T15:03:07.593Z,0.70
2019-02-10T15:05:37.807Z,0.30
2019-02-10T15:08:08.052Z,0.90
2019-02-10T15:10:42.005Z,0.70
2019-02-10T15:13:10.056Z,0.40
2019-02-10T15:15:40.196Z,0.97
2019-02-10T15:18:10.349Z,0.60
2019-02-10T15:20:40.512Z,1.77
2019-02-10T15:23:10.719Z,2.10
2019-02-10T15:25:40.898Z,0.70
2019-02-10T15:28:11.082Z,0.60
2019-02-10T15:30:41.225Z,0.50
2019-02-10T15:33:11.407Z,0.90
2019-02-10T15:35:41.549Z,0.40
2019-02-10T15:38:11.723Z,0.77
2019-02-10T15:40:49.660Z,0.80
2019-02-10T15:43:13.769Z,0.50
2019-02-10T15:45:43.914Z,0.53
2019-02-10T15:48:14.059Z,1.10
2019-02-10T15:50:44.241Z,0.57
2019-02-10T15:53:14.379Z,1.30
2019-02-10T15:55:44.557Z,0.80
2019-02-10T15:58:14.742Z,0.70
2019-02-10T16:00:45.190Z,0.50
2019-02-10T16:03:15.341Z,0.60
2019-02-10T16:05:45.499Z,0.50
2019-02-10T16:08:15.996Z,0.50
2019-02-10T16:10:46.177Z,0.50
2019-02-10T16:13:16.336Z,0.70
2019-02-10T16:15:46.504Z,0.80
2019-02-10T16:18:16.675Z,0.70
2019-02-10T16:20:46.828Z,0.83
2019-02-10T16:23:17.257Z,0.60
2019-02-10T16:25:47.477Z,0.97
2019-02-10T16:28:17.661Z,0.80
2019-02-10T16:30:47.788Z,0.60
2019-02-10T16:33:18.018Z,0.97
2019-02-10T16:35:48.179Z,0.67
2019-02-10T16:38:18.350Z,0.40
2019-02-10T16:40:48.512Z,1.10
2019-02-10T16:43:18.675Z,0.43
2019-02-10T16:45:48.818Z,0.70
2019-02-10T16:48:19.050Z,0.60
2019-02-10T16:50:49.220Z,0.53
2019-02-10T16:53:19.370Z,0.87
2019-02-10T16:55:49.526Z,0.83
2019-02-10T16:58:19.668Z,0.67
2019-02-10T17:00:49.817Z,0.37
2019-02-10T17:03:19.996Z,0.40
2019-02-10T17:05:50.155Z,1.77
2019-02-10T17:08:20.286Z,0.80
2019-02-10T17:10:50.499Z,0.43
2019-02-10T17:13:20.752Z,0.80
2019-02-10T17:15:50.989Z,0.40
2019-02-10T17:18:21.127Z,0.40
2019-02-10T17:20:51.370Z,0.40
2019-02-10T17:23:21.546Z,0.43
2019-02-10T17:25:51.681Z,0.87
2019-02-10T17:28:24.739Z,0.80
2019-02-10T17:30:54.904Z,0.43
2019-02-10T17:33:25.082Z,0.40
2019-02-10T17:35:55.213Z,0.73
2019-02-10T17:38:25.385Z,0.70
2019-02-10T17:41:00.244Z,0.50
2019-02-10T17:43:30.411Z,0.70
2019-02-10T17:46:01.537Z,1.17
2019-02-10T17:48:31.688Z,0.70
2019-02-10T17:51:01.876Z,0.40
2019-02-10T17:53:32.027Z,2.57
2019-02-10T17:56:02.210Z,0.40
2019-02-10T17:58:32.463Z,0.83
2019-02-10T18:01:02.627Z,2.40
2019-02-10T18:03:32.860Z,0.60
2019-02-10T18:06:03.044Z,0.67
2019-02-10T18:08:33.188Z,0.53
2019-02-10T18:11:03.623Z,0.60
2019-02-10T18:13:33.762Z,0.90
2019-02-10T18:16:15.489Z,1.07
2019-02-10T18:18:45.539Z,0.30
2019-02-10T18:21:15.440Z,0.43
2019-02-10T18:24:03.215Z,0.60
2019-02-10T18:26:36.929Z,2.20
2019-02-10T18:29:24.699Z,0.40
2019-02-10T18:32:12.728Z,1.53
2019-02-10T18:34:44.555Z,0.40
2019-02-10T18:37:16.365Z,0.43
2019-02-10T18:39:56.890Z,0.50
2019-02-10T18:42:31.657Z,0.60
2019-02-10T18:45:07.406Z,1.20
2019-02-10T18:47:45.184Z,0.60
2019-02-10T18:50:16.988Z,0.60
2019-02-10T18:52:54.540Z,1.70
2019-02-10T18:55:26.330Z,0.87
2019-02-10T18:58:01.175Z,0.57
2019-02-10T19:00:31.130Z,0.60
2019-02-10T19:03:18.676Z,1.00
2019-02-10T19:05:50.452Z,0.90
2019-02-10T19:08:25.179Z,0.40
2019-02-10T19:11:14.705Z,2.83
2019-02-10T19:13:58.763Z,0.50
2019-02-10T19:16:39.483Z,1.47
2019-02-10T19:19:17.244Z,0.70
2019-02-10T19:21:50.043Z,0.73
2019-02-10T19:24:24.531Z,0.60
2019-02-10T19:26:56.314Z,0.50
2019-02-10T19:29:28.108Z,0.60
2019-02-10T19:32:09.169Z,0.63
2019-02-10T19:34:50.281Z,0.43
2019-02-10T19:37:37.301Z,1.10
2019-02-10T19:40:13.675Z,0.80
2019-02-10T19:43:03.487Z,0.90
2019-02-10T19:45:36.859Z,1.00
2019-02-10T19:48:08.661Z,0.70
2019-02-10T19:50:40.446Z,0.53
2019-02-10T19:53:12.273Z,0.50
2019-02-10T19:55:47.152Z,0.77
2019-02-10T19:58:33.998Z,0.80
2019-02-10T20:01:18.063Z,1.13
2019-02-10T20:03:52.569Z,0.77
2019-02-10T20:06:33.644Z,1.50
2019-02-10T20:09:11.823Z,0.60
2019-02-10T20:12:04.114Z,0.80
2019-02-10T20:14:31.699Z,0.50
2019-02-10T20:17:03.563Z,0.80
2019-02-10T20:19:35.390Z,1.17
2019-02-10T20:22:15.901Z,0.80
2019-02-10T20:24:53.339Z,2.57
2019-02-10T20:27:25.156Z,0.70
2019-02-10T20:30:02.696Z,1.07
2019-02-10T20:32:50.874Z,0.50
2019-02-10T20:35:26.842Z,1.00
2019-02-10T20:38:01.469Z,0.50
2019-02-10T20:40:42.183Z,1.47
2019-02-10T20:43:14.003Z,0.50
2019-02-10T20:45:45.863Z,0.60
2019-02-10T20:48:20.731Z,0.50
2019-02-10T20:50:52.530Z,0.97
2019-02-10T20:53:33.313Z,0.90
2019-02-10T20:56:05.133Z,0.50
2019-02-10T20:58:42.894Z,0.60
2019-02-10T21:01:26.505Z,1.40
2019-02-10T21:04:02.600Z,0.60
2019-02-10T21:06:34.422Z,0.50
2019-02-10T21:09:10.177Z,0.50
2019-02-10T21:11:58.011Z,0.40
2019-02-10T21:14:45.809Z,0.83
2019-02-10T21:17:26.678Z,0.53
2019-02-10T21:19:58.429Z,0.93
2019-02-10T21:22:46.163Z,1.63
2019-02-10T21:25:33.971Z,0.50
2019-02-10T21:28:08.318Z,0.50
2019-02-10T21:30:56.232Z,0.73
2019-02-10T21:33:44.583Z,0.77
2019-02-10T21:36:25.615Z,1.07
2019-02-10T21:38:58.235Z,0.73
2019-02-10T21:41:28.270Z,1.30
2019-02-10T21:44:00.108Z,0.73
2019-02-10T21:46:31.909Z,0.80
2019-02-10T21:49:03.754Z,0.60
2019-02-10T21:51:34.010Z,0.40
2019-02-10T21:54:04.200Z,0.50
2019-02-10T21:56:34.346Z,0.60
2019-02-10T21:59:06.583Z,0.43
2019-02-10T22:01:36.802Z,1.80
2019-02-10T22:04:07.059Z,0.40
2019-02-10T22:06:37.178Z,0.40
2019-02-10T22:09:07.592Z,0.60
2019-02-10T22:11:37.845Z,0.40
2019-02-10T22:14:08.019Z,0.77
2019-02-10T22:16:38.229Z,2.17
2019-02-10T22:19:08.427Z,0.40
2019-02-10T22:21:38.667Z,0.73
2019-02-10T22:24:08.907Z,0.90
2019-02-10T22:26:39.095Z,0.40
2019-02-10T22:29:09.253Z,0.60
2019-02-10T22:31:39.438Z,0.80
2019-02-10T22:34:09.665Z,0.30
2019-02-10T22:36:39.801Z,0.50
2019-02-10T22:39:10.191Z,0.40
2019-02-10T22:41:40.344Z,0.50
2019-02-10T22:44:10.468Z,0.53
2019-02-10T22:46:40.662Z,0.87
2019-02-10T22:49:10.841Z,0.30
2019-02-10T22:51:41.099Z,0.40
2019-02-10T22:54:11.259Z,0.40
2019-02-10T22:56:41.520Z,0.70
2019-02-10T22:59:11.619Z,0.40
2019-02-10T23:01:41.821Z,0.60
2019-02-10T23:04:11.972Z,0.57
2019-02-10T23:06:42.119Z,0.70
2019-02-10T23:09:14.024Z,0.50
2019-02-10T23:11:44.223Z,0.57
2019-02-10T23:14:14.365Z,0.57
2019-02-10T23:16:44.522Z,0.67
2019-02-10T23:19:14.701Z,0.67
2019-02-10T23:21:44.862Z,0.40
2019-02-10T23:24:15.085Z,0.40
2019-02-10T23:26:45.308Z,0.50
2019-02-10T23:29:15.437Z,0.73
2019-02-10T23:31:45.944Z,0.47
2019-02-10T23:34:16.091Z,0.50
2019-02-10T23:36:46.248Z,0.40
2019-02-10T23:39:16.446Z,0.50
2019-02-10T23:41:46.665Z,0.40
2019-02-10T23:44:16.924Z,0.80
2019-02-10T23:46:47.226Z,0.40
2019-02-10T23:49:17.420Z,0.40
2019-02-10T23:51:47.671Z,0.50
2019-02-10T23:54:17.849Z,0.40
2019-02-10T23:56:48.080Z,0.40
2019-02-10T23:59:18.248Z,1.07
